Time;durP1;ratioP1;P1;durP2;ratioP2;P2;SDS_P1;SDS_P2;PMS_P1;PMS_P2;Temp;Humidity;BMP_temperature;BMP_pressure;BME280_temperature;BME280_humidity;BME280_pressure;Samples;Min_cycle;Max_cycle;Signal;HPM_P1;HPM_P2
2023/09/13 00:04:10;;;;;;;6.07;3.78;;;;;;;;;;10301574;28;20019;-72
2023/09/13 00:09:10;;;;;;;9.68;3.92;;;;;;;;;;10321818;28;20030;-71
2023/09/13 00:14:12;;;;;;;5.70;2.97;;;;;;;;;;10320443;28;20031;-69
2023/09/13 00:19:12;;;;;;;6.38;3.80;;;;;;;;;;10323437;28;20035;-83
2023/09/13 00:24:13;;;;;;;6.18;3.70;;;;;;;;;;10313524;28;20018;-79
2023/09/13 00:29:14;;;;;;;6.00;3.45;;;;;;;;;;10306818;28;20073;-78
2023/09/13 00:34:17;;;;;;;6.72;3.65;;;;;;;;;;10364056;28;20056;-79
2023/09/13 00:39:19;;;;;;;8.80;3.83;;;;;;;;;;10315300;28;20042;-83
2023/09/13 00:44:23;;;;;;;6.95;3.72;;;;;;;;;;10329432;28;20380;-76
2023/09/13 00:49:23;;;;;;;7.20;4.47;;;;;;;;;;10323121;28;20023;-80
2023/09/13 00:54:26;;;;;;;8.50;4.15;;;;;;;;;;10327135;28;20046;-78
2023/09/13 00:59:26;;;;;;;8.20;4.13;;;;;;;;;;10322751;28;20474;-78
2023/09/13 01:04:29;;;;;;;5.73;3.97;;;;;;;;;;10356849;28;20053;-80
2023/09/13 01:09:31;;;;;;;4.80;3.85;;;;;;;;;;10342553;28;20023;-77
2023/09/13 01:14:33;;;;;;;10.48;4.13;;;;;;;;;;10341467;28;20517;-80
2023/09/13 01:19:33;;;;;;;7.43;3.78;;;;;;;;;;10349390;28;20217;-75
2023/09/13 01:24:33;;;;;;;15.02;5.80;;;;;;;;;;10327674;28;20014;-80
2023/09/13 01:29:34;;;;;;;4.88;3.40;;;;;;;;;;10333950;28;20127;-81
2023/09/13 01:34:34;;;;;;;5.22;4.00;;;;;;;;;;10329671;28;20027;-79
2023/09/13 01:39:35;;;;;;;7.32;3.33;;;;;;;;;;10327891;28;20491;-83
2023/09/13 01:44:36;;;;;;;6.70;3.75;;;;;;;;;;10330605;28;20018;-79
2023/09/13 01:49:37;;;;;;;5.43;4.25;;;;;;;;;;10326941;28;20030;-81
2023/09/13 01:54:44;;;;;;;5.13;3.80;;;;;;;;;;10331495;28;20402;-73
2023/09/13 01:59:45;;;;;;;10.03;3.77;;;;;;;;;;10335805;28;20026;-77
2023/09/13 02:04:45;;;;;;;6.95;4.07;;;;;;;;;;10330546;28;20427;-76
2023/09/13 02:09:46;;;;;;;8.15;4.32;;;;;;;;;;10344199;28;20048;-77
2023/09/13 02:14:46;;;;;;;7.00;3.60;;;;;;;;;;10337900;28;20045;-79
2023/09/13 02:19:50;;;;;;;8.55;4.53;;;;;;;;;;10342815;28;20341;-75
2023/09/13 02:24:50;;;;;;;11.93;4.40;;;;;;;;;;10308178;28;20014;-73
2023/09/13 02:29:50;;;;;;;11.60;4.73;;;;;;;;;;10328842;28;20029;-79
2023/09/13 02:34:50;;;;;;;5.22;3.45;;;;;;;;;;10341803;28;20502;-79
2023/09/13 02:39:53;;;;;;;8.73;3.85;;;;;;;;;;10342508;28;20451;-74
2023/09/13 02:44:53;;;;;;;7.47;4.18;;;;;;;;;;10347715;28;20023;-73
2023/09/13 02:49:54;;;;;;;11.80;4.32;;;;;;;;;;10336698;28;20034;-75
2023/09/13 02:54:54;;;;;;;11.95;4.70;;;;;;;;;;10338312;28;20057;-81
2023/09/13 02:59:55;;;;;;;9.85;4.32;;;;;;;;;;10313658;28;20022;-79
2023/09/13 03:04:55;;;;;;;12.30;4.70;;;;;;;;;;10346135;28;20486;-79
2023/09/13 03:10:00;;;;;;;7.77;4.33;;;;;;;;;;10432462;23;20730;-79
2023/09/13 03:15:03;;;;;;;10.88;4.30;;;;;;;;;;10437531;28;20158;-71
2023/09/13 03:20:03;;;;;;;7.28;4.18;;;;;;;;;;10443639;28;20028;-79
2023/09/13 03:25:05;;;;;;;8.82;4.47;;;;;;;;;;10420710;28;20021;-79
2023/09/13 03:30:08;;;;;;;7.22;4.07;;;;;;;;;;10409911;28;20501;-77
2023/09/13 03:35:10;;;;;;;12.65;4.75;;;;;;;;;;10423199;28;20052;-74
2023/09/13 03:40:14;;;;;;;6.78;5.03;;;;;;;;;;10448195;28;20302;-78
2023/09/13 03:45:14;;;;;;;10.63;4.88;;;;;;;;;;10444925;28;20098;-80
2023/09/13 03:50:19;;;;;;;11.25;6.03;;;;;;;;;;10451199;28;20032;-82
2023/09/13 03:55:29;;;;;;;11.27;6.28;;;;;;;;;;10450793;28;20029;-80
2023/09/13 04:00:29;;;;;;;18.77;5.93;;;;;;;;;;10450013;28;20409;-78
2023/09/13 04:05:31;;;;;;;7.85;4.68;;;;;;;;;;10444118;28;20032;-75
2023/09/13 04:10:33;;;;;;;13.18;5.20;;;;;;;;;;10369562;28;20058;-69
2023/09/13 04:15:33;;;;;;;14.15;5.15;;;;;;;;;;10369670;28;20033;-78
2023/09/13 04:20:34;;;;;;;10.98;5.68;;;;;;;;;;10451071;28;20021;-77
2023/09/13 04:25:34;;;;;;;6.25;4.47;;;;;;;;;;10445942;28;20095;-75
2023/09/13 04:30:36;;;;;;;13.38;4.38;;;;;;;;;;10443273;28;20024;-84
2023/09/13 04:35:37;;;;;;;10.23;5.43;;;;;;;;;;10408306;28;20036;-76
2023/09/13 04:40:43;;;;;;;8.93;6.82;;;;;;;;;;10362578;28;20129;-76
2023/09/13 04:45:43;;;;;;;10.80;5.13;;;;;;;;;;10443083;28;20021;-79
2023/09/13 04:50:43;;;;;;;8.35;5.15;;;;;;;;;;10451245;28;20020;-76
2023/09/13 04:55:44;;;;;;;10.23;5.40;;;;;;;;;;10454379;28;20021;-80
2023/09/13 05:00:49;;;;;;;7.53;5.45;;;;;;;;;;10452648;28;20444;-84
2023/09/13 05:05:49;;;;;;;8.60;4.80;;;;;;;;;;10457738;28;20072;-72
2023/09/13 05:10:52;;;;;;;13.27;5.35;;;;;;;;;;10478300;28;20045;-61
2023/09/13 05:15:52;;;;;;;16.88;5.90;;;;;;;;;;10453295;28;20021;-80
2023/09/13 05:20:52;;;;;;;8.88;5.07;;;;;;;;;;10461317;28;20037;-76
2023/09/13 05:25:56;;;;;;;10.45;5.15;;;;;;;;;;10437407;28;20063;-71
2023/09/13 05:30:57;;;;;;;10.23;4.50;;;;;;;;;;10469254;28;20519;-80
2023/09/13 05:35:58;;;;;;;8.27;4.57;;;;;;;;;;10457829;28;20416;-77
2023/09/13 05:41:04;;;;;;;11.52;5.25;;;;;;;;;;10454352;28;20118;-82
2023/09/13 05:46:04;;;;;;;7.82;5.07;;;;;;;;;;10451574;28;20017;-76
2023/09/13 05:51:05;;;;;;;10.95;4.65;;;;;;;;;;10452488;28;20469;-76
2023/09/13 05:56:05;;;;;;;10.32;4.50;;;;;;;;;;10453478;28;20107;-76
2023/09/13 06:01:05;;;;;;;7.15;4.25;;;;;;;;;;10450546;28;20033;-79
2023/09/13 06:06:07;;;;;;;6.28;3.97;;;;;;;;;;10448009;28;20029;-82
2023/09/13 06:11:08;;;;;;;14.40;4.82;;;;;;;;;;10424209;28;20053;-76
2023/09/13 06:16:09;;;;;;;10.93;4.57;;;;;;;;;;10412276;28;20030;-86
2023/09/13 06:21:13;;;;;;;17.08;6.93;;;;;;;;;;10436846;28;20030;-85
2023/09/13 06:26:14;;;;;;;9.20;4.95;;;;;;;;;;10417022;28;20154;-81
2023/09/13 06:31:16;;;;;;;5.57;3.73;;;;;;;;;;10455874;28;20118;-83
2023/09/13 06:36:19;;;;;;;12.20;3.80;;;;;;;;;;10431139;28;20306;-79
2023/09/13 06:41:19;;;;;;;7.82;3.88;;;;;;;;;;10445513;28;20408;-79
2023/09/13 06:46:19;;;;;;;8.60;3.88;;;;;;;;;;10445365;28;20036;-79
2023/09/13 06:51:20;;;;;;;6.80;3.72;;;;;;;;;;10445848;28;20021;-78
2023/09/13 06:56:21;;;;;;;5.38;3.50;;;;;;;;;;10447946;28;20020;-78
2023/09/13 07:01:22;;;;;;;9.57;3.75;;;;;;;;;;10447117;28;20017;-79
2023/09/13 07:06:23;;;;;;;5.38;3.30;;;;;;;;;;10447454;28;20028;-80
2023/09/13 07:11:24;;;;;;;5.57;3.30;;;;;;;;;;10448548;28;20053;-80
2023/09/13 07:16:25;;;;;;;9.05;3.10;;;;;;;;;;10434399;28;20026;-81
2023/09/13 07:21:25;;;;;;;6.30;3.60;;;;;;;;;;10424445;28;20035;-78
2023/09/13 07:26:26;;;;;;;9.88;3.13;;;;;;;;;;10446767;28;20027;-82
2023/09/13 07:31:26;;;;;;;5.30;3.30;;;;;;;;;;10449435;28;20036;-77
2023/09/13 07:36:28;;;;;;;5.47;2.75;;;;;;;;;;10443156;28;20021;-77
2023/09/13 07:41:29;;;;;;;5.85;2.78;;;;;;;;;;10445750;28;20032;-80
2023/09/13 07:46:30;;;;;;;5.57;2.55;;;;;;;;;;10446324;28;20466;-82
2023/09/13 07:51:30;;;;;;;7.60;2.60;;;;;;;;;;10452186;28;20088;-82
2023/09/13 07:56:33;;;;;;;6.53;3.53;;;;;;;;;;10448260;28;20028;-75
2023/09/13 08:01:33;;;;;;;13.23;3.45;;;;;;;;;;10432121;28;20021;-75
2023/09/13 08:06:34;;;;;;;11.67;3.37;;;;;;;;;;10453252;28;20459;-76
2023/09/13 08:11:34;;;;;;;9.65;2.90;;;;;;;;;;10448534;28;20109;-76
2023/09/13 08:16:35;;;;;;;9.00;3.08;;;;;;;;;;10444935;28;20036;-78
2023/09/13 08:21:35;;;;;;;14.50;4.07;;;;;;;;;;10442429;28;20025;-79
2023/09/13 08:26:36;;;;;;;11.57;3.83;;;;;;;;;;10457314;28;20014;-71
2023/09/13 08:31:36;;;;;;;16.17;4.40;;;;;;;;;;10441117;28;20469;-77
2023/09/13 08:36:38;;;;;;;14.60;3.80;;;;;;;;;;10414694;28;20283;-78
2023/09/13 08:41:39;;;;;;;6.47;3.50;;;;;;;;;;10400385;28;20029;-75
2023/09/13 08:46:39;;;;;;;10.82;2.75;;;;;;;;;;10439175;28;20044;-76
2023/09/13 08:51:45;;;;;;;12.52;3.42;;;;;;;;;;10445089;28;20013;-78
2023/09/13 08:56:45;;;;;;;7.23;2.90;;;;;;;;;;10446848;28;20025;-80
2023/09/13 09:02:04;;;;;;;16.43;3.63;;;;;;;;;;10450907;28;20404;-80
2023/09/13 09:07:08;;;;;;;6.45;2.55;;;;;;;;;;10445419;28;20045;-76
2023/09/13 09:12:11;;;;;;;6.85;2.78;;;;;;;;;;10440653;28;20045;-79
2023/09/13 09:17:13;;;;;;;6.40;2.97;;;;;;;;;;10423387;28;20124;-80
2023/09/13 09:22:15;;;;;;;8.90;3.40;;;;;;;;;;10424091;28;20033;-75
2023/09/13 09:27:16;;;;;;;9.50;3.00;;;;;;;;;;10448128;22;20064;-75
2023/09/13 09:32:17;;;;;;;6.72;2.78;;;;;;;;;;10402412;28;20113;-81
2023/09/13 09:37:27;;;;;;;8.38;3.50;;;;;;;;;;10414783;28;20021;-84
2023/09/13 09:42:29;;;;;;;5.72;3.10;;;;;;;;;;10432806;28;20032;-82
2023/09/13 09:47:29;;;;;;;5.15;2.25;;;;;;;;;;10392982;28;20029;-78
2023/09/13 09:52:39;;;;;;;6.05;2.70;;;;;;;;;;10449003;28;20013;-80
2023/09/13 09:57:44;;;;;;;12.73;2.30;;;;;;;;;;10438759;28;20487;-80
2023/09/13 10:02:45;;;;;;;8.70;2.72;;;;;;;;;;10409364;28;20040;-80
2023/09/13 10:07:54;;;;;;;6.38;2.10;;;;;;;;;;10406874;28;20021;-78
2023/09/13 10:12:54;;;;;;;17.20;2.10;;;;;;;;;;10394594;28;20044;-81
2023/09/13 10:17:57;;;;;;;7.03;2.40;;;;;;;;;;10393572;28;20025;-79
2023/09/13 10:22:59;;;;;;;6.25;1.75;;;;;;;;;;10396766;28;20021;-79
2023/09/13 10:28:01;;;;;;;7.90;2.40;;;;;;;;;;10406412;28;20045;-78
2023/09/13 10:33:03;;;;;;;5.45;2.20;;;;;;;;;;10409846;28;20549;-81
2023/09/13 10:38:42;;;;;;;6.60;1.83;;;;;;;;;;10369466;28;20029;-84
2023/09/13 10:43:47;;;;;;;7.82;1.70;;;;;;;;;;10188919;29;20023;-81
2023/09/13 10:48:49;;;;;;;3.80;1.85;;;;;;;;;;10371760;28;20563;-78
2023/09/13 10:54:09;;;;;;;5.13;1.80;;;;;;;;;;10393031;28;20079;-84
2023/09/13 10:59:12;;;;;;;2.97;1.77;;;;;;;;;;10385087;28;20469;-84
2023/09/13 11:04:17;;;;;;;8.23;2.63;;;;;;;;;;10397776;28;20014;-77
2023/09/13 11:09:24;;;;;;;10.70;2.15;;;;;;;;;;10390397;28;20048;-83
2023/09/13 11:14:28;;;;;;;8.55;2.03;;;;;;;;;;10414298;28;20028;-77
2023/09/13 11:19:29;;;;;;;8.82;1.95;;;;;;;;;;10415220;28;20037;-76
2023/09/13 11:24:33;;;;;;;7.70;2.33;;;;;;;;;;10389337;28;20029;-78
2023/09/13 11:29:42;;;;;;;5.95;2.30;;;;;;;;;;10391467;28;20054;-81
2023/09/13 11:34:43;;;;;;;9.00;2.50;;;;;;;;;;10409907;28;20475;-77
2023/09/13 11:39:51;;;;;;;8.45;2.45;;;;;;;;;;10388309;28;20043;-81
2023/09/13 11:44:53;;;;;;;8.57;2.58;;;;;;;;;;10408253;28;20335;-77
2023/09/13 11:49:55;;;;;;;12.65;2.58;;;;;;;;;;10391530;28;20033;-77
2023/09/13 11:54:58;;;;;;;7.25;2.72;;;;;;;;;;10387376;28;20083;-79
2023/09/13 12:00:00;;;;;;;7.32;2.90;;;;;;;;;;10388206;28;20079;-83
2023/09/13 12:05:03;;;;;;;12.82;2.95;;;;;;;;;;10435228;22;20065;-80
2023/09/13 12:10:04;;;;;;;10.20;3.10;;;;;;;;;;10404369;28;20021;-75
2023/09/13 12:15:05;;;;;;;8.82;2.97;;;;;;;;;;10406340;28;20027;-82
2023/09/13 12:20:05;;;;;;;7.78;2.42;;;;;;;;;;10443743;28;20036;-76
2023/09/13 12:25:13;;;;;;;7.72;2.40;;;;;;;;;;10409367;28;20025;-80
2023/09/13 12:30:18;;;;;;;5.55;3.00;;;;;;;;;;10421303;28;20064;-79
2023/09/13 12:35:18;;;;;;;11.20;3.28;;;;;;;;;;10395351;28;20053;-79
2023/09/13 12:40:20;;;;;;;7.18;2.50;;;;;;;;;;10438711;28;20048;-82
2023/09/13 12:45:21;;;;;;;11.18;2.65;;;;;;;;;;10431347;28;20559;-79
2023/09/13 12:50:26;;;;;;;9.32;3.03;;;;;;;;;;10406106;28;20039;-77
2023/09/13 12:55:28;;;;;;;4.60;2.35;;;;;;;;;;10392762;28;20060;-79
2023/09/13 13:00:29;;;;;;;8.82;2.47;;;;;;;;;;10392716;28;20025;-76
2023/09/13 13:05:39;;;;;;;13.40;3.42;;;;;;;;;;10431870;28;20049;-78
2023/09/13 13:11:12;;;;;;;8.07;2.97;;;;;;;;;;10396852;28;20061;-75
2023/09/13 13:16:20;;;;;;;10.95;2.97;;;;;;;;;;10358746;28;20037;-78
2023/09/13 13:21:23;;;;;;;9.57;2.47;;;;;;;;;;10426610;28;20025;-75
2023/09/13 13:26:24;;;;;;;8.80;2.70;;;;;;;;;;10436133;28;20078;-78
2023/09/13 13:31:27;;;;;;;11.98;3.45;;;;;;;;;;10452267;28;20060;-78
2023/09/13 13:36:47;;;;;;;11.65;3.22;;;;;;;;;;10453370;28;20047;-80
2023/09/13 13:41:47;;;;;;;10.80;3.83;;;;;;;;;;10410631;28;20037;-80
2023/09/13 13:46:48;;;;;;;7.72;3.75;;;;;;;;;;10384001;28;20022;-80
2023/09/13 13:51:49;;;;;;;7.07;2.72;;;;;;;;;;10390914;28;20460;-78
2023/09/13 13:56:49;;;;;;;9.55;3.00;;;;;;;;;;10388105;28;20014;-80
2023/09/13 14:01:49;;;;;;;16.58;4.55;;;;;;;;;;10370643;28;20029;-78
2023/09/13 14:06:51;;;;;;;10.40;4.63;;;;;;;;;;10387045;28;20056;-71
2023/09/13 14:11:52;;;;;;;5.65;2.65;;;;;;;;;;10376931;28;20086;-77
2023/09/13 14:16:54;;;;;;;4.72;2.47;;;;;;;;;;10394796;28;20085;-83
2023/09/13 14:21:54;;;;;;;10.50;3.47;;;;;;;;;;10369605;28;20425;-81
2023/09/13 14:26:54;;;;;;;10.40;3.40;;;;;;;;;;10371290;28;20025;-78
2023/09/13 14:32:00;;;;;;;8.27;3.33;;;;;;;;;;10384175;28;20030;-83
2023/09/13 14:37:01;;;;;;;7.68;2.70;;;;;;;;;;10383286;28;20594;-78
2023/09/13 14:42:03;;;;;;;7.22;2.88;;;;;;;;;;10393055;28;20037;-81
2023/09/13 14:47:04;;;;;;;9.88;2.78;;;;;;;;;;10384623;28;20036;-72
2023/09/13 14:52:05;;;;;;;13.95;3.63;;;;;;;;;;10382593;28;20024;-73
2023/09/13 14:57:05;;;;;;;5.75;3.15;;;;;;;;;;10378774;28;20413;-73
2023/09/13 15:02:07;;;;;;;12.83;2.83;;;;;;;;;;10369545;28;20040;-75
2023/09/13 15:07:08;;;;;;;6.47;3.05;;;;;;;;;;10363029;28;20053;-76
2023/09/13 15:12:09;;;;;;;14.37;2.77;;;;;;;;;;10383247;28;20421;-77
2023/09/13 15:17:09;;;;;;;6.82;2.35;;;;;;;;;;10378137;28;20018;-78
2023/09/13 15:22:10;;;;;;;9.95;2.60;;;;;;;;;;10364675;28;20029;-72
2023/09/13 15:27:10;;;;;;;5.20;2.88;;;;;;;;;;10377115;28;20517;-78
2023/09/13 15:32:12;;;;;;;9.30;2.90;;;;;;;;;;10356781;28;20490;-73
2023/09/13 15:37:13;;;;;;;22.20;3.45;;;;;;;;;;10378216;28;20039;-74
2023/09/13 15:42:13;;;;;;;8.05;3.95;;;;;;;;;;10369782;28;20022;-75
2023/09/13 15:47:14;;;;;;;13.93;3.47;;;;;;;;;;10379211;28;20103;-79
2023/09/13 15:52:14;;;;;;;9.10;2.95;;;;;;;;;;10353287;28;20049;-79
2023/09/13 15:57:16;;;;;;;11.63;3.35;;;;;;;;;;10377809;28;20034;-79
2023/09/13 16:02:17;;;;;;;11.02;3.92;;;;;;;;;;10377767;28;20033;-74
2023/09/13 16:07:17;;;;;;;13.15;3.85;;;;;;;;;;10361550;28;20496;-75
2023/09/13 16:12:17;;;;;;;13.17;5.03;;;;;;;;;;10363824;28;20056;-77
2023/09/13 16:17:17;;;;;;;11.43;4.60;;;;;;;;;;10363005;28;20068;-72
2023/09/13 16:22:18;;;;;;;13.45;4.63;;;;;;;;;;10362414;28;20030;-74
2023/09/13 16:27:18;;;;;;;27.60;6.00;;;;;;;;;;10360904;28;20080;-73
2023/09/13 16:32:18;;;;;;;10.60;4.80;;;;;;;;;;10376690;28;20041;-73
2023/09/13 16:37:19;;;;;;;18.00;4.67;;;;;;;;;;10368467;28;20104;-73
2023/09/13 16:42:19;;;;;;;15.18;5.82;;;;;;;;;;10385026;28;20116;-74
2023/09/13 16:47:19;;;;;;;15.37;5.37;;;;;;;;;;10378263;28;20021;-77
2023/09/13 16:52:19;;;;;;;15.35;4.82;;;;;;;;;;10385578;28;20029;-73
2023/09/13 16:57:20;;;;;;;6.83;3.80;;;;;;;;;;10372345;28;20516;-77
2023/09/13 17:02:21;;;;;;;7.82;3.65;;;;;;;;;;10374257;28;20055;-76
2023/09/13 17:07:21;;;;;;;10.18;3.60;;;;;;;;;;10371646;28;20069;-75
2023/09/13 17:12:23;;;;;;;7.43;3.10;;;;;;;;;;10394574;28;20160;-75
2023/09/13 17:17:23;;;;;;;8.25;3.75;;;;;;;;;;10370129;28;20025;-72
2023/09/13 17:22:24;;;;;;;8.85;3.53;;;;;;;;;;10389764;28;20034;-74
2023/09/13 17:27:24;;;;;;;9.15;3.97;;;;;;;;;;10378619;28;20022;-72
2023/09/13 17:32:24;;;;;;;9.82;3.53;;;;;;;;;;10383637;28;20075;-74
2023/09/13 17:37:26;;;;;;;5.30;2.87;;;;;;;;;;10383490;28;20140;-76
2023/09/13 17:42:26;;;;;;;14.20;4.78;;;;;;;;;;10377184;28;20029;-72
2023/09/13 17:47:27;;;;;;;7.55;4.07;;;;;;;;;;10380320;28;20040;-73
2023/09/13 17:52:27;;;;;;;10.88;4.90;;;;;;;;;;10387206;28;20041;-78
2023/09/13 17:57:30;;;;;;;10.27;4.13;;;;;;;;;;10385848;28;20021;-70
2023/09/13 18:02:31;;;;;;;10.80;4.05;;;;;;;;;;10399693;28;20037;-78
2023/09/13 18:07:36;;;;;;;14.90;3.75;;;;;;;;;;10363780;28;20050;-70
2023/09/13 18:12:37;;;;;;;10.50;3.33;;;;;;;;;;10345214;28;20030;-74
2023/09/13 18:17:40;;;;;;;8.60;4.10;;;;;;;;;;10357220;28;20409;-77
2023/09/13 18:22:42;;;;;;;15.13;3.88;;;;;;;;;;10344822;28;20028;-76
2023/09/13 18:27:42;;;;;;;11.48;3.78;;;;;;;;;;10343720;28;20410;-76
2023/09/13 18:32:42;;;;;;;14.55;3.78;;;;;;;;;;10375808;23;20061;-80
2023/09/13 18:37:42;;;;;;;5.60;3.53;;;;;;;;;;10360972;28;20053;-79
2023/09/13 18:42:53;;;;;;;12.65;5.05;;;;;;;;;;10380939;28;20083;-74
2023/09/13 18:48:00;;;;;;;9.27;3.67;;;;;;;;;;10379832;28;20029;-80
2023/09/13 18:53:00;;;;;;;8.75;4.50;;;;;;;;;;10391359;28;20072;-76
2023/09/13 18:58:00;;;;;;;11.77;4.88;;;;;;;;;;10395160;28;20037;-71
2023/09/13 19:03:04;;;;;;;16.77;6.30;;;;;;;;;;10393848;28;20043;-79
2023/09/13 19:08:08;;;;;;;8.77;4.43;;;;;;;;;;10375963;28;20505;-78
2023/09/13 19:13:12;;;;;;;7.00;3.70;;;;;;;;;;10369992;28;20406;-82
2023/09/13 19:18:13;;;;;;;7.22;3.33;;;;;;;;;;10356196;28;20853;-78
2023/09/13 19:23:13;;;;;;;12.38;7.43;;;;;;;;;;10345946;28;20036;-78
2023/09/13 19:28:14;;;;;;;413.33;385.53;;;;;;;;;;10351548;28;20135;-77
2023/09/13 19:33:14;;;;;;;12.70;9.52;;;;;;;;;;10346003;28;20061;-78
2023/09/13 19:38:16;;;;;;;92.35;86.15;;;;;;;;;;10362852;28;20057;-77
2023/09/13 19:43:17;;;;;;;275.23;257.90;;;;;;;;;;10359268;28;20108;-80
2023/09/13 19:48:19;;;;;;;646.22;601.38;;;;;;;;;;10354394;28;20846;-81
2023/09/13 19:53:20;;;;;;;1005.92;932.28;;;;;;;;;;10356475;28;20090;-76
2023/09/13 19:58:20;;;;;;;1052.13;968.47;;;;;;;;;;10349511;28;20061;-74
2023/09/13 20:03:21;;;;;;;895.60;827.72;;;;;;;;;;10347738;28;20025;-76
2023/09/13 20:08:21;;;;;;;553.73;513.80;;;;;;;;;;10344937;28;20478;-73
2023/09/13 20:13:21;;;;;;;169.60;158.77;;;;;;;;;;10367500;28;20807;-73
2023/09/13 20:18:23;;;;;;;429.50;402.23;;;;;;;;;;10370688;28;20025;-79
2023/09/13 20:23:26;;;;;;;863.95;802.70;;;;;;;;;;10351795;28;20049;-75
2023/09/13 20:28:32;;;;;;;18.73;11.13;;;;;;;;;;10350148;28;20090;-78
2023/09/13 20:33:32;;;;;;;1020.20;939.55;;;;;;;;;;10356861;28;20138;-71
2023/09/13 20:38:35;;;;;;;1049.20;959.95;;;;;;;;;;10365508;28;20036;-80
2023/09/13 20:43:35;;;;;;;1012.97;922.22;;;;;;;;;;10374971;28;20097;-78
2023/09/13 20:48:36;;;;;;;19.02;5.13;;;;;;;;;;10353498;28;20512;-73
2023/09/13 20:53:36;;;;;;;8.70;3.80;;;;;;;;;;10362913;28;20029;-73
2023/09/13 20:58:37;;;;;;;678.97;621.75;;;;;;;;;;10380398;28;20493;-71
2023/09/13 21:03:37;;;;;;;242.82;222.88;;;;;;;;;;10361213;28;20029;-74
2023/09/13 21:08:38;;;;;;;534.80;500.77;;;;;;;;;;10365575;28;20540;-79
2023/09/13 21:13:38;;;;;;;857.10;796.53;;;;;;;;;;10362544;28;20616;-73
2023/09/13 21:18:45;;;;;;;751.65;697.88;;;;;;;;;;10363217;28;20021;-78
2023/09/13 21:23:45;;;;;;;566.75;526.67;;;;;;;;;;10357031;28;20819;-75
2023/09/13 21:28:48;;;;;;;806.65;749.58;;;;;;;;;;10374160;28;20029;-73
2023/09/13 21:33:48;;;;;;;958.60;887.53;;;;;;;;;;10381402;28;20045;-78
2023/09/13 21:38:49;;;;;;;945.72;867.97;;;;;;;;;;10369409;28;20033;-79
2023/09/13 21:43:50;;;;;;;693.83;636.63;;;;;;;;;;10377986;28;20426;-78
2023/09/13 21:48:50;;;;;;;982.65;896.30;;;;;;;;;;10370943;28;20025;-78
2023/09/13 21:53:51;;;;;;;9.07;4.07;;;;;;;;;;10376480;28;20042;-78
2023/09/13 21:58:54;;;;;;;1014.58;934.72;;;;;;;;;;10373176;28;20087;-79
2023/09/13 22:03:54;;;;;;;1004.75;910.38;;;;;;;;;;10378393;28;20032;-81
2023/09/13 22:08:54;;;;;;;54.85;39.35;;;;;;;;;;10356405;28;20512;-83
2023/09/13 22:13:56;;;;;;;9.53;4.87;;;;;;;;;;10374735;28;20042;-81
2023/09/13 22:18:57;;;;;;;10.88;4.97;;;;;;;;;;10370492;28;20028;-80
2023/09/13 22:23:57;;;;;;;13.60;5.30;;;;;;;;;;10392369;28;20111;-75
2023/09/13 22:28:57;;;;;;;8.57;4.68;;;;;;;;;;10376060;28;20029;-79
2023/09/13 22:33:59;;;;;;;9.60;4.50;;;;;;;;;;10359380;28;20092;-77
2023/09/13 22:39:03;;;;;;;7.68;4.47;;;;;;;;;;10385686;28;20571;-83
2023/09/13 22:44:03;;;;;;;8.60;4.05;;;;;;;;;;10363988;28;20034;-77
2023/09/13 22:49:04;;;;;;;6.93;3.53;;;;;;;;;;10378622;28;20551;-76
2023/09/13 22:54:05;;;;;;;8.00;4.35;;;;;;;;;;10381175;28;20184;-80
2023/09/13 22:59:06;;;;;;;10.68;4.97;;;;;;;;;;10375206;28;20574;-80
2023/09/13 23:04:08;;;;;;;12.27;4.80;;;;;;;;;;10353664;28;20030;-82
2023/09/13 23:09:11;;;;;;;9.93;4.55;;;;;;;;;;10372936;28;20099;-81
2023/09/13 23:14:11;;;;;;;14.60;4.85;;;;;;;;;;10383614;28;20034;-74
2023/09/13 23:19:12;;;;;;;16.08;5.53;;;;;;;;;;10377545;28;20029;-80
2023/09/13 23:24:15;;;;;;;14.38;5.38;;;;;;;;;;10366573;28;20554;-76
2023/09/13 23:29:15;;;;;;;10.57;4.13;;;;;;;;;;10370302;28;20052;-77
2023/09/13 23:34:16;;;;;;;8.75;4.88;;;;;;;;;;10389667;28;20058;-75
2023/09/13 23:39:17;;;;;;;12.15;4.78;;;;;;;;;;10380436;28;20091;-77
2023/09/13 23:44:18;;;;;;;11.05;4.35;;;;;;;;;;10386375;28;20259;-73
2023/09/13 23:49:19;;;;;;;11.98;4.40;;;;;;;;;;10349443;28;20038;-78
2023/09/13 23:54:24;;;;;;;11.47;4.27;;;;;;;;;;10384761;28;20479;-84
2023/09/13 23:59:26;;;;;;;10.00;4.70;;;;;;;;;;10369337;28;20045;-80
